sensor_id;sensor_type;location;lat;lon;timestamp;temperature;humidity
18611;DHT22;9435;52.122;5.502;2022-09-28T00:01:43;8.00;99.90
18611;DHT22;9435;52.122;5.502;2022-09-28T00:04:11;8.00;99.90
18611;DHT22;9435;52.122;5.502;2022-09-28T00:06:38;8.00;99.90
18611;DHT22;9435;52.122;5.502;2022-09-28T00:09:05;7.90;99.90
18611;DHT22;9435;52.122;5.502;2022-09-28T00:11:32;7.90;99.90
18611;DHT22;9435;52.122;5.502;2022-09-28T00:14:00;7.90;99.90
18611;DHT22;9435;52.122;5.502;2022-09-28T00:16:31;7.90;99.90
18611;DHT22;9435;52.122;5.502;2022-09-28T00:18:59;7.90;99.90
18611;DHT22;9435;52.122;5.502;2022-09-28T00:21:27;7.90;99.90
18611;DHT22;9435;52.122;5.502;2022-09-28T00:23:56;7.80;99.90
18611;DHT22;9435;52.122;5.502;2022-09-28T00:26:41;7.80;99.90
18611;DHT22;9435;52.122;5.502;2022-09-28T00:29:18;7.80;99.90
18611;DHT22;9435;52.122;5.502;2022-09-28T00:31:47;7.80;99.90
18611;DHT22;9435;52.122;5.502;2022-09-28T00:34:15;7.80;99.90
18611;DHT22;9435;52.122;5.502;2022-09-28T00:36:43;7.70;99.90
18611;DHT22;9435;52.122;5.502;2022-09-28T00:39:13;7.70;99.90
18611;DHT22;9435;52.122;5.502;2022-09-28T00:41:40;7.70;99.90
18611;DHT22;9435;52.122;5.502;2022-09-28T00:44:39;7.70;99.90
18611;DHT22;9435;52.122;5.502;2022-09-28T00:50:02;7.70;99.90
18611;DHT22;9435;52.122;5.502;2022-09-28T00:52:38;7.60;99.90
18611;DHT22;9435;52.122;5.502;2022-09-28T00:55:08;7.60;99.90
18611;DHT22;9435;52.122;5.502;2022-09-28T00:57:39;7.50;99.90
18611;DHT22;9435;52.122;5.502;2022-09-28T01:00:10;7.50;99.90
18611;DHT22;9435;52.122;5.502;2022-09-28T01:02:38;7.50;99.90
18611;DHT22;9435;52.122;5.502;2022-09-28T01:05:06;7.50;99.90
18611;DHT22;9435;52.122;5.502;2022-09-28T01:07:35;7.50;99.90
18611;DHT22;9435;52.122;5.502;2022-09-28T01:10:03;7.40;99.90
18611;DHT22;9435;52.122;5.502;2022-09-28T01:12:31;7.40;99.90
18611;DHT22;9435;52.122;5.502;2022-09-28T01:14:58;7.40;99.90
18611;DHT22;9435;52.122;5.502;2022-09-28T01:17:31;7.40;99.90
18611;DHT22;9435;52.122;5.502;2022-09-28T01:20:31;7.40;99.90
18611;DHT22;9435;52.122;5.502;2022-09-28T01:26:35;7.40;99.90
18611;DHT22;9435;52.122;5.502;2022-09-28T01:29:14;7.40;99.90
18611;DHT22;9435;52.122;5.502;2022-09-28T01:31:46;7.40;99.90
18611;DHT22;9435;52.122;5.502;2022-09-28T01:34:17;7.40;99.90
18611;DHT22;9435;52.122;5.502;2022-09-28T01:36:49;7.40;99.90
18611;DHT22;9435;52.122;5.502;2022-09-28T01:39:20;7.40;99.90
18611;DHT22;9435;52.122;5.502;2022-09-28T01:41:53;7.40;99.90
18611;DHT22;9435;52.122;5.502;2022-09-28T01:44:23;7.40;99.90
18611;DHT22;9435;52.122;5.502;2022-09-28T01:46:52;7.40;99.90
18611;DHT22;9435;52.122;5.502;2022-09-28T01:49:21;7.50;99.90
18611;DHT22;9435;52.122;5.502;2022-09-28T01:51:54;7.50;99.90
18611;DHT22;9435;52.122;5.502;2022-09-28T01:54:27;7.50;99.90
18611;DHT22;9435;52.122;5.502;2022-09-28T01:57:03;7.50;99.90
18611;DHT22;9435;52.122;5.502;2022-09-28T01:59:32;7.50;99.90
18611;DHT22;9435;52.122;5.502;2022-09-28T02:02:04;7.50;99.90
18611;DHT22;9435;52.122;5.502;2022-09-28T02:04:37;7.50;99.90
18611;DHT22;9435;52.122;5.502;2022-09-28T02:07:10;7.40;99.90
18611;DHT22;9435;52.122;5.502;2022-09-28T02:09:41;7.40;99.90
18611;DHT22;9435;52.122;5.502;2022-09-28T02:12:14;7.40;99.90
18611;DHT22;9435;52.122;5.502;2022-09-28T02:14:43;7.50;99.90
18611;DHT22;9435;52.122;5.502;2022-09-28T02:17:11;7.40;99.90
18611;DHT22;9435;52.122;5.502;2022-09-28T02:19:41;7.40;99.90
18611;DHT22;9435;52.122;5.502;2022-09-28T02:22:16;7.40;99.90
18611;DHT22;9435;52.122;5.502;2022-09-28T02:24:52;7.40;99.90
18611;DHT22;9435;52.122;5.502;2022-09-28T02:27:28;7.40;99.90
18611;DHT22;9435;52.122;5.502;2022-09-28T02:29:57;7.40;99.90
18611;DHT22;9435;52.122;5.502;2022-09-28T02:32:25;7.40;99.90
18611;DHT22;9435;52.122;5.502;2022-09-28T02:34:54;7.40;99.90
18611;DHT22;9435;52.122;5.502;2022-09-28T02:37:21;7.30;99.90
18611;DHT22;9435;52.122;5.502;2022-09-28T02:39:48;7.30;99.90
18611;DHT22;9435;52.122;5.502;2022-09-28T02:42:20;7.40;99.90
18611;DHT22;9435;52.122;5.502;2022-09-28T02:45:03;7.40;99.90
18611;DHT22;9435;52.122;5.502;2022-09-28T02:47:50;7.40;99.90
18611;DHT22;9435;52.122;5.502;2022-09-28T02:50:29;7.40;99.90
18611;DHT22;9435;52.122;5.502;2022-09-28T02:53:15;7.30;99.90
18611;DHT22;9435;52.122;5.502;2022-09-28T02:55:56;7.40;99.90
18611;DHT22;9435;52.122;5.502;2022-09-28T02:58:34;7.40;99.90
18611;DHT22;9435;52.122;5.502;2022-09-28T03:01:16;7.40;99.90
18611;DHT22;9435;52.122;5.502;2022-09-28T03:03:49;7.40;99.90
18611;DHT22;9435;52.122;5.502;2022-09-28T03:06:23;7.40;99.90
18611;DHT22;9435;52.122;5.502;2022-09-28T03:08:57;7.40;99.90
18611;DHT22;9435;52.122;5.502;2022-09-28T03:11:29;7.40;99.90
18611;DHT22;9435;52.122;5.502;2022-09-28T03:13:58;7.40;99.90
18611;DHT22;9435;52.122;5.502;2022-09-28T03:16:26;7.40;99.90
18611;DHT22;9435;52.122;5.502;2022-09-28T03:18:56;7.40;99.90
18611;DHT22;9435;52.122;5.502;2022-09-28T03:21:23;7.40;99.90
18611;DHT22;9435;52.122;5.502;2022-09-28T03:23:50;7.40;99.90
18611;DHT22;9435;52.122;5.502;2022-09-28T03:26:17;7.40;99.90
18611;DHT22;9435;52.122;5.502;2022-09-28T03:28:44;7.40;99.90
18611;DHT22;9435;52.122;5.502;2022-09-28T03:31:11;7.40;99.90
18611;DHT22;9435;52.122;5.502;2022-09-28T03:33:40;7.30;99.90
18611;DHT22;9435;52.122;5.502;2022-09-28T03:36:07;7.40;99.90
18611;DHT22;9435;52.122;5.502;2022-09-28T03:38:34;7.30;99.90
18611;DHT22;9435;52.122;5.502;2022-09-28T03:41:01;7.30;99.90
18611;DHT22;9435;52.122;5.502;2022-09-28T03:43:30;7.20;99.90
18611;DHT22;9435;52.122;5.502;2022-09-28T03:45:58;7.20;99.90
18611;DHT22;9435;52.122;5.502;2022-09-28T03:48:27;7.20;99.90
18611;DHT22;9435;52.122;5.502;2022-09-28T03:50:58;7.10;99.90
18611;DHT22;9435;52.122;5.502;2022-09-28T03:53:25;7.10;99.90
18611;DHT22;9435;52.122;5.502;2022-09-28T03:55:54;7.00;99.90
18611;DHT22;9435;52.122;5.502;2022-09-28T03:58:22;7.00;99.90
18611;DHT22;9435;52.122;5.502;2022-09-28T04:00:49;6.90;99.90
18611;DHT22;9435;52.122;5.502;2022-09-28T04:03:16;7.00;99.90
18611;DHT22;9435;52.122;5.502;2022-09-28T04:05:50;7.00;99.90
18611;DHT22;9435;52.122;5.502;2022-09-28T04:08:18;6.90;99.90
18611;DHT22;9435;52.122;5.502;2022-09-28T04:10:46;6.90;99.90
18611;DHT22;9435;52.122;5.502;2022-09-28T04:13:13;6.90;99.90
18611;DHT22;9435;52.122;5.502;2022-09-28T04:15:40;6.90;99.90
18611;DHT22;9435;52.122;5.502;2022-09-28T04:18:09;6.90;99.90
18611;DHT22;9435;52.122;5.502;2022-09-28T04:20:36;6.80;99.90
18611;DHT22;9435;52.122;5.502;2022-09-28T04:23:05;6.80;99.90
18611;DHT22;9435;52.122;5.502;2022-09-28T04:25:33;6.80;99.90
18611;DHT22;9435;52.122;5.502;2022-09-28T04:28:01;6.80;99.90
18611;DHT22;9435;52.122;5.502;2022-09-28T04:30:47;6.70;99.90
18611;DHT22;9435;52.122;5.502;2022-09-28T04:33:14;6.70;99.90
18611;DHT22;9435;52.122;5.502;2022-09-28T04:35:41;6.70;99.90
18611;DHT22;9435;52.122;5.502;2022-09-28T04:38:08;6.70;99.90
18611;DHT22;9435;52.122;5.502;2022-09-28T04:40:37;6.70;99.90
18611;DHT22;9435;52.122;5.502;2022-09-28T04:43:04;6.60;99.90
18611;DHT22;9435;52.122;5.502;2022-09-28T04:45:31;6.50;99.90
18611;DHT22;9435;52.122;5.502;2022-09-28T04:47:58;6.40;99.90
18611;DHT22;9435;52.122;5.502;2022-09-28T04:50:25;6.30;99.90
18611;DHT22;9435;52.122;5.502;2022-09-28T04:52:52;6.30;99.90
18611;DHT22;9435;52.122;5.502;2022-09-28T04:55:19;6.40;99.90
18611;DHT22;9435;52.122;5.502;2022-09-28T04:57:47;6.40;99.90
18611;DHT22;9435;52.122;5.502;2022-09-28T05:00:14;6.40;99.90
18611;DHT22;9435;52.122;5.502;2022-09-28T05:02:41;6.40;99.90
18611;DHT22;9435;52.122;5.502;2022-09-28T05:05:09;6.40;99.90
18611;DHT22;9435;52.122;5.502;2022-09-28T05:07:36;6.30;99.90
18611;DHT22;9435;52.122;5.502;2022-09-28T05:10:03;6.30;99.90
18611;DHT22;9435;52.122;5.502;2022-09-28T05:12:31;6.30;99.90
18611;DHT22;9435;52.122;5.502;2022-09-28T05:14:59;6.30;99.90
18611;DHT22;9435;52.122;5.502;2022-09-28T05:17:26;6.30;99.90
18611;DHT22;9435;52.122;5.502;2022-09-28T05:19:53;6.30;99.90
18611;DHT22;9435;52.122;5.502;2022-09-28T05:22:20;6.30;99.90
18611;DHT22;9435;52.122;5.502;2022-09-28T05:24:47;6.30;99.90
18611;DHT22;9435;52.122;5.502;2022-09-28T05:27:14;6.30;99.90
18611;DHT22;9435;52.122;5.502;2022-09-28T05:29:41;6.20;99.90
18611;DHT22;9435;52.122;5.502;2022-09-28T05:32:09;6.20;99.90
18611;DHT22;9435;52.122;5.502;2022-09-28T05:34:36;6.10;99.90
18611;DHT22;9435;52.122;5.502;2022-09-28T05:37:03;6.10;99.90
18611;DHT22;9435;52.122;5.502;2022-09-28T05:39:30;6.10;99.90
18611;DHT22;9435;52.122;5.502;2022-09-28T05:41:57;6.00;99.90
18611;DHT22;9435;52.122;5.502;2022-09-28T05:44:24;6.10;99.90
18611;DHT22;9435;52.122;5.502;2022-09-28T05:46:52;6.10;99.90
18611;DHT22;9435;52.122;5.502;2022-09-28T05:49:20;6.10;99.90
18611;DHT22;9435;52.122;5.502;2022-09-28T05:51:47;6.00;99.90
18611;DHT22;9435;52.122;5.502;2022-09-28T05:54:14;5.90;99.90
18611;DHT22;9435;52.122;5.502;2022-09-28T05:56:41;5.90;99.90
18611;DHT22;9435;52.122;5.502;2022-09-28T05:59:08;5.90;99.90
18611;DHT22;9435;52.122;5.502;2022-09-28T06:01:36;5.90;99.90
18611;DHT22;9435;52.122;5.502;2022-09-28T06:04:03;5.90;99.90
18611;DHT22;9435;52.122;5.502;2022-09-28T06:06:33;5.90;99.90
18611;DHT22;9435;52.122;5.502;2022-09-28T06:09:01;5.90;99.90
18611;DHT22;9435;52.122;5.502;2022-09-28T06:11:28;5.90;99.90
18611;DHT22;9435;52.122;5.502;2022-09-28T06:13:55;5.80;99.90
18611;DHT22;9435;52.122;5.502;2022-09-28T06:16:22;5.80;99.90
18611;DHT22;9435;52.122;5.502;2022-09-28T06:18:50;5.80;99.90
18611;DHT22;9435;52.122;5.502;2022-09-28T06:21:17;5.90;99.90
18611;DHT22;9435;52.122;5.502;2022-09-28T06:23:45;5.90;99.90
18611;DHT22;9435;52.122;5.502;2022-09-28T06:26:12;6.00;99.90
18611;DHT22;9435;52.122;5.502;2022-09-28T06:28:39;6.00;99.90
18611;DHT22;9435;52.122;5.502;2022-09-28T06:31:06;6.00;99.90
18611;DHT22;9435;52.122;5.502;2022-09-28T06:33:34;6.00;99.90
18611;DHT22;9435;52.122;5.502;2022-09-28T06:36:03;6.10;99.90
18611;DHT22;9435;52.122;5.502;2022-09-28T06:38:30;6.20;99.90
18611;DHT22;9435;52.122;5.502;2022-09-28T06:40:58;6.20;99.90
18611;DHT22;9435;52.122;5.502;2022-09-28T06:43:25;6.30;99.90
18611;DHT22;9435;52.122;5.502;2022-09-28T06:45:54;6.30;99.90
18611;DHT22;9435;52.122;5.502;2022-09-28T06:48:21;6.40;99.90
18611;DHT22;9435;52.122;5.502;2022-09-28T06:50:49;6.50;99.90
18611;DHT22;9435;52.122;5.502;2022-09-28T06:53:16;6.60;99.90
18611;DHT22;9435;52.122;5.502;2022-09-28T06:55:44;6.70;99.90
18611;DHT22;9435;52.122;5.502;2022-09-28T06:58:16;6.90;99.90
18611;DHT22;9435;52.122;5.502;2022-09-28T07:00:44;7.10;99.90
18611;DHT22;9435;52.122;5.502;2022-09-28T07:03:14;7.30;99.90
18611;DHT22;9435;52.122;5.502;2022-09-28T07:05:42;7.50;99.90
18611;DHT22;9435;52.122;5.502;2022-09-28T07:08:10;7.70;99.90
18611;DHT22;9435;52.122;5.502;2022-09-28T07:10:41;8.00;99.90
18611;DHT22;9435;52.122;5.502;2022-09-28T07:13:08;8.10;99.90
18611;DHT22;9435;52.122;5.502;2022-09-28T07:15:36;8.30;99.90
18611;DHT22;9435;52.122;5.502;2022-09-28T07:18:04;8.50;99.90
18611;DHT22;9435;52.122;5.502;2022-09-28T07:20:33;8.70;99.90
18611;DHT22;9435;52.122;5.502;2022-09-28T07:23:01;8.80;99.90
18611;DHT22;9435;52.122;5.502;2022-09-28T07:25:29;9.00;99.90
18611;DHT22;9435;52.122;5.502;2022-09-28T07:27:58;9.10;99.90
18611;DHT22;9435;52.122;5.502;2022-09-28T07:30:27;9.20;99.90
18611;DHT22;9435;52.122;5.502;2022-09-28T07:32:55;9.40;99.90
18611;DHT22;9435;52.122;5.502;2022-09-28T07:35:22;9.60;99.90
18611;DHT22;9435;52.122;5.502;2022-09-28T07:37:56;9.70;99.90
18611;DHT22;9435;52.122;5.502;2022-09-28T07:40:25;9.80;99.90
18611;DHT22;9435;52.122;5.502;2022-09-28T07:43:09;9.90;99.90
18611;DHT22;9435;52.122;5.502;2022-09-28T07:45:37;10.10;99.90
18611;DHT22;9435;52.122;5.502;2022-09-28T07:48:06;10.20;99.90
18611;DHT22;9435;52.122;5.502;2022-09-28T07:50:33;10.30;99.90
18611;DHT22;9435;52.122;5.502;2022-09-28T07:53:00;10.40;99.90
18611;DHT22;9435;52.122;5.502;2022-09-28T07:55:27;10.50;99.90
18611;DHT22;9435;52.122;5.502;2022-09-28T07:57:54;10.60;99.90
18611;DHT22;9435;52.122;5.502;2022-09-28T08:00:25;10.80;99.90
18611;DHT22;9435;52.122;5.502;2022-09-28T08:02:52;10.90;99.90
18611;DHT22;9435;52.122;5.502;2022-09-28T08:05:21;11.00;99.90
18611;DHT22;9435;52.122;5.502;2022-09-28T08:07:47;11.10;99.90
18611;DHT22;9435;52.122;5.502;2022-09-28T08:10:15;11.30;99.90
18611;DHT22;9435;52.122;5.502;2022-09-28T08:12:42;11.40;99.90
18611;DHT22;9435;52.122;5.502;2022-09-28T08:15:10;11.40;99.90
18611;DHT22;9435;52.122;5.502;2022-09-28T08:17:37;11.50;99.90
18611;DHT22;9435;52.122;5.502;2022-09-28T08:20:05;11.60;99.90
18611;DHT22;9435;52.122;5.502;2022-09-28T08:22:51;11.70;99.90
18611;DHT22;9435;52.122;5.502;2022-09-28T08:25:18;11.80;99.90
18611;DHT22;9435;52.122;5.502;2022-09-28T08:27:45;11.90;99.90
18611;DHT22;9435;52.122;5.502;2022-09-28T08:30:12;12.00;99.90
18611;DHT22;9435;52.122;5.502;2022-09-28T08:32:45;12.20;99.90
18611;DHT22;9435;52.122;5.502;2022-09-28T08:35:12;12.20;99.90
18611;DHT22;9435;52.122;5.502;2022-09-28T08:37:40;12.10;99.90
18611;DHT22;9435;52.122;5.502;2022-09-28T08:40:15;12.20;99.90
18611;DHT22;9435;52.122;5.502;2022-09-28T08:42:43;12.20;99.90
18611;DHT22;9435;52.122;5.502;2022-09-28T08:45:12;12.40;99.90
18611;DHT22;9435;52.122;5.502;2022-09-28T08:47:47;12.30;99.90
18611;DHT22;9435;52.122;5.502;2022-09-28T08:50:39;12.40;99.90
18611;DHT22;9435;52.122;5.502;2022-09-28T08:53:18;12.50;99.90
18611;DHT22;9435;52.122;5.502;2022-09-28T08:55:51;12.60;99.90
18611;DHT22;9435;52.122;5.502;2022-09-28T08:58:22;12.70;99.90
18611;DHT22;9435;52.122;5.502;2022-09-28T09:00:53;12.80;99.90
18611;DHT22;9435;52.122;5.502;2022-09-28T09:03:21;12.60;99.90
18611;DHT22;9435;52.122;5.502;2022-09-28T09:05:55;12.70;99.90
18611;DHT22;9435;52.122;5.502;2022-09-28T09:08:35;12.80;99.90
18611;DHT22;9435;52.122;5.502;2022-09-28T09:11:15;12.90;99.90
18611;DHT22;9435;52.122;5.502;2022-09-28T09:14:01;13.00;99.90
18611;DHT22;9435;52.122;5.502;2022-09-28T09:16:37;13.10;99.90
18611;DHT22;9435;52.122;5.502;2022-09-28T09:19:14;13.30;99.90
18611;DHT22;9435;52.122;5.502;2022-09-28T09:21:46;13.40;99.90
18611;DHT22;9435;52.122;5.502;2022-09-28T09:24:25;13.50;99.90
18611;DHT22;9435;52.122;5.502;2022-09-28T09:27:03;13.60;99.90
18611;DHT22;9435;52.122;5.502;2022-09-28T09:29:50;13.60;99.90
18611;DHT22;9435;52.122;5.502;2022-09-28T09:32:30;13.60;99.90
18611;DHT22;9435;52.122;5.502;2022-09-28T09:35:12;13.60;99.90
18611;DHT22;9435;52.122;5.502;2022-09-28T09:37:56;13.80;99.90
18611;DHT22;9435;52.122;5.502;2022-09-28T09:40:40;13.80;99.90
18611;DHT22;9435;52.122;5.502;2022-09-28T09:46:15;13.70;99.90
18611;DHT22;9435;52.122;5.502;2022-09-28T09:48:49;13.80;99.90
18611;DHT22;9435;52.122;5.502;2022-09-28T09:51:23;13.80;99.90
18611;DHT22;9435;52.122;5.502;2022-09-28T09:53:54;13.60;99.90
18611;DHT22;9435;52.122;5.502;2022-09-28T09:56:30;13.30;99.90
18611;DHT22;9435;52.122;5.502;2022-09-28T09:59:04;13.10;99.90
18611;DHT22;9435;52.122;5.502;2022-09-28T10:01:35;13.10;99.90
18611;DHT22;9435;52.122;5.502;2022-09-28T10:04:07;13.30;99.90
18611;DHT22;9435;52.122;5.502;2022-09-28T10:06:40;13.60;99.90
18611;DHT22;9435;52.122;5.502;2022-09-28T10:09:12;13.90;99.90
18611;DHT22;9435;52.122;5.502;2022-09-28T10:11:42;13.80;99.90
18611;DHT22;9435;52.122;5.502;2022-09-28T10:14:15;14.00;99.90
18611;DHT22;9435;52.122;5.502;2022-09-28T10:16:43;13.80;99.90
18611;DHT22;9435;52.122;5.502;2022-09-28T10:19:13;13.60;99.90
18611;DHT22;9435;52.122;5.502;2022-09-28T10:21:41;13.50;99.90
18611;DHT22;9435;52.122;5.502;2022-09-28T10:24:15;13.80;99.90
18611;DHT22;9435;52.122;5.502;2022-09-28T10:26:47;14.00;99.90
18611;DHT22;9435;52.122;5.502;2022-09-28T10:29:19;13.90;99.90
18611;DHT22;9435;52.122;5.502;2022-09-28T10:31:47;13.80;99.90
18611;DHT22;9435;52.122;5.502;2022-09-28T10:34:16;13.70;99.90
18611;DHT22;9435;52.122;5.502;2022-09-28T10:36:49;13.80;99.90
18611;DHT22;9435;52.122;5.502;2022-09-28T10:39:31;14.00;99.90
18611;DHT22;9435;52.122;5.502;2022-09-28T10:42:02;14.10;99.90
18611;DHT22;9435;52.122;5.502;2022-09-28T10:44:41;14.20;99.90
18611;DHT22;9435;52.122;5.502;2022-09-28T10:47:14;14.40;99.90
18611;DHT22;9435;52.122;5.502;2022-09-28T10:49:43;14.50;99.90
18611;DHT22;9435;52.122;5.502;2022-09-28T10:52:33;14.40;99.90
18611;DHT22;9435;52.122;5.502;2022-09-28T10:55:00;14.50;99.90
18611;DHT22;9435;52.122;5.502;2022-09-28T10:57:32;14.50;99.90
18611;DHT22;9435;52.122;5.502;2022-09-28T11:00:02;14.20;99.90
18611;DHT22;9435;52.122;5.502;2022-09-28T11:02:31;14.00;99.90
18611;DHT22;9435;52.122;5.502;2022-09-28T11:05:01;14.20;99.90
18611;DHT22;9435;52.122;5.502;2022-09-28T11:07:30;14.30;99.90
18611;DHT22;9435;52.122;5.502;2022-09-28T11:09:58;14.50;99.90
18611;DHT22;9435;52.122;5.502;2022-09-28T11:12:28;14.60;99.90
18611;DHT22;9435;52.122;5.502;2022-09-28T11:15:03;14.70;99.90
18611;DHT22;9435;52.122;5.502;2022-09-28T11:17:32;14.70;99.90
18611;DHT22;9435;52.122;5.502;2022-09-28T11:20:29;14.80;99.90
18611;DHT22;9435;52.122;5.502;2022-09-28T11:22:58;14.80;99.90
18611;DHT22;9435;52.122;5.502;2022-09-28T11:25:27;14.90;99.90
18611;DHT22;9435;52.122;5.502;2022-09-28T11:27:56;15.00;99.90
18611;DHT22;9435;52.122;5.502;2022-09-28T11:30:27;14.90;99.90
18611;DHT22;9435;52.122;5.502;2022-09-28T11:33:01;14.90;99.90
18611;DHT22;9435;52.122;5.502;2022-09-28T11:35:41;15.10;99.90
18611;DHT22;9435;52.122;5.502;2022-09-28T11:38:30;15.10;99.90
18611;DHT22;9435;52.122;5.502;2022-09-28T11:41:13;15.10;99.90
18611;DHT22;9435;52.122;5.502;2022-09-28T11:44:03;15.10;99.90
18611;DHT22;9435;52.122;5.502;2022-09-28T11:46:41;15.10;99.90
18611;DHT22;9435;52.122;5.502;2022-09-28T11:49:24;15.10;99.90
18611;DHT22;9435;52.122;5.502;2022-09-28T11:51:55;15.10;99.90
18611;DHT22;9435;52.122;5.502;2022-09-28T11:54:25;15.10;99.90
18611;DHT22;9435;52.122;5.502;2022-09-28T11:56:54;15.00;99.90
18611;DHT22;9435;52.122;5.502;2022-09-28T11:59:27;15.30;99.90
18611;DHT22;9435;52.122;5.502;2022-09-28T12:01:59;15.40;99.90
18611;DHT22;9435;52.122;5.502;2022-09-28T12:04:33;15.40;99.90
18611;DHT22;9435;52.122;5.502;2022-09-28T12:07:05;15.20;99.90
18611;DHT22;9435;52.122;5.502;2022-09-28T12:09:36;15.00;99.90
18611;DHT22;9435;52.122;5.502;2022-09-28T12:12:17;15.00;99.90
18611;DHT22;9435;52.122;5.502;2022-09-28T12:14:46;14.90;99.90
18611;DHT22;9435;52.122;5.502;2022-09-28T12:17:20;14.90;99.90
18611;DHT22;9435;52.122;5.502;2022-09-28T12:19:52;14.80;99.90
18611;DHT22;9435;52.122;5.502;2022-09-28T12:22:24;14.80;99.90
18611;DHT22;9435;52.122;5.502;2022-09-28T12:24:56;14.80;99.90
18611;DHT22;9435;52.122;5.502;2022-09-28T12:27:30;14.80;99.90
18611;DHT22;9435;52.122;5.502;2022-09-28T12:30:03;14.70;99.90
18611;DHT22;9435;52.122;5.502;2022-09-28T12:32:35;14.70;99.90
18611;DHT22;9435;52.122;5.502;2022-09-28T12:35:11;14.60;99.90
18611;DHT22;9435;52.122;5.502;2022-09-28T12:37:48;14.60;99.90
18611;DHT22;9435;52.122;5.502;2022-09-28T12:40:32;14.60;99.90
18611;DHT22;9435;52.122;5.502;2022-09-28T12:43:14;14.50;99.90
18611;DHT22;9435;52.122;5.502;2022-09-28T12:45:58;14.40;99.90
18611;DHT22;9435;52.122;5.502;2022-09-28T12:48:46;14.30;99.90
18611;DHT22;9435;52.122;5.502;2022-09-28T12:51:29;14.00;99.90
18611;DHT22;9435;52.122;5.502;2022-09-28T12:54:07;13.80;99.90
18611;DHT22;9435;52.122;5.502;2022-09-28T12:56:41;13.60;99.90
18611;DHT22;9435;52.122;5.502;2022-09-28T12:59:19;13.50;99.90
18611;DHT22;9435;52.122;5.502;2022-09-28T13:04:59;13.10;99.90
18611;DHT22;9435;52.122;5.502;2022-09-28T13:07:32;13.00;99.90
18611;DHT22;9435;52.122;5.502;2022-09-28T13:10:11;12.90;99.90
18611;DHT22;9435;52.122;5.502;2022-09-28T13:12:52;12.80;99.90
18611;DHT22;9435;52.122;5.502;2022-09-28T13:15:47;12.90;99.90
18611;DHT22;9435;52.122;5.502;2022-09-28T13:18:23;12.80;99.90
18611;DHT22;9435;52.122;5.502;2022-09-28T13:21:08;12.80;99.90
18611;DHT22;9435;52.122;5.502;2022-09-28T13:23:38;12.70;99.90
18611;DHT22;9435;52.122;5.502;2022-09-28T13:26:17;12.70;99.90
18611;DHT22;9435;52.122;5.502;2022-09-28T13:28:47;12.70;99.90
18611;DHT22;9435;52.122;5.502;2022-09-28T13:31:19;12.60;99.90
18611;DHT22;9435;52.122;5.502;2022-09-28T13:33:47;12.60;99.90
18611;DHT22;9435;52.122;5.502;2022-09-28T13:36:36;12.50;99.90
18611;DHT22;9435;52.122;5.502;2022-09-28T13:45:22;12.40;99.90
18611;DHT22;9435;52.122;5.502;2022-09-28T13:51:03;12.40;99.90
18611;DHT22;9435;52.122;5.502;2022-09-28T13:53:47;12.50;99.90
18611;DHT22;9435;52.122;5.502;2022-09-28T13:56:26;12.60;99.90
18611;DHT22;9435;52.122;5.502;2022-09-28T13:58:59;12.60;99.90
18611;DHT22;9435;52.122;5.502;2022-09-28T14:01:30;12.70;99.90
18611;DHT22;9435;52.122;5.502;2022-09-28T14:04:14;12.80;99.90
18611;DHT22;9435;52.122;5.502;2022-09-28T14:06:48;12.80;99.90
18611;DHT22;9435;52.122;5.502;2022-09-28T14:12:27;12.80;99.90
18611;DHT22;9435;52.122;5.502;2022-09-28T14:14:54;12.80;99.90
18611;DHT22;9435;52.122;5.502;2022-09-28T14:17:51;12.80;99.90
18611;DHT22;9435;52.122;5.502;2022-09-28T14:20:24;12.80;99.90
18611;DHT22;9435;52.122;5.502;2022-09-28T14:26:18;12.80;99.90
18611;DHT22;9435;52.122;5.502;2022-09-28T14:29:00;12.90;99.90
18611;DHT22;9435;52.122;5.502;2022-09-28T14:31:32;12.90;99.90
18611;DHT22;9435;52.122;5.502;2022-09-28T14:34:00;13.00;99.90
18611;DHT22;9435;52.122;5.502;2022-09-28T14:36:35;12.90;99.90
18611;DHT22;9435;52.122;5.502;2022-09-28T14:39:25;12.90;99.90
18611;DHT22;9435;52.122;5.502;2022-09-28T14:42:14;12.90;99.90
18611;DHT22;9435;52.122;5.502;2022-09-28T14:48:17;12.80;99.90
18611;DHT22;9435;52.122;5.502;2022-09-28T14:50:45;12.90;99.90
18611;DHT22;9435;52.122;5.502;2022-09-28T14:53:18;12.80;99.90
18611;DHT22;9435;52.122;5.502;2022-09-28T14:55:50;12.80;99.90
18611;DHT22;9435;52.122;5.502;2022-09-28T14:58:23;12.70;99.90
18611;DHT22;9435;52.122;5.502;2022-09-28T15:01:01;12.70;99.90
18611;DHT22;9435;52.122;5.502;2022-09-28T15:03:31;12.60;99.90
18611;DHT22;9435;52.122;5.502;2022-09-28T15:05:59;12.60;99.90
18611;DHT22;9435;52.122;5.502;2022-09-28T15:08:35;12.50;99.90
18611;DHT22;9435;52.122;5.502;2022-09-28T15:11:03;12.40;99.90
18611;DHT22;9435;52.122;5.502;2022-09-28T15:13:32;12.40;99.90
18611;DHT22;9435;52.122;5.502;2022-09-28T15:16:03;12.50;99.90
18611;DHT22;9435;52.122;5.502;2022-09-28T15:18:49;12.40;99.90
18611;DHT22;9435;52.122;5.502;2022-09-28T15:21:18;12.40;99.90
18611;DHT22;9435;52.122;5.502;2022-09-28T15:23:46;12.40;99.90
18611;DHT22;9435;52.122;5.502;2022-09-28T15:26:22;12.40;99.90
18611;DHT22;9435;52.122;5.502;2022-09-28T15:28:54;12.30;99.90
18611;DHT22;9435;52.122;5.502;2022-09-28T15:31:22;12.30;99.90
18611;DHT22;9435;52.122;5.502;2022-09-28T15:33:50;12.30;99.90
18611;DHT22;9435;52.122;5.502;2022-09-28T15:36:37;12.30;99.90
18611;DHT22;9435;52.122;5.502;2022-09-28T15:39:06;12.30;99.90
18611;DHT22;9435;52.122;5.502;2022-09-28T15:41:38;12.30;99.90
18611;DHT22;9435;52.122;5.502;2022-09-28T15:44:24;12.20;99.90
18611;DHT22;9435;52.122;5.502;2022-09-28T15:47:05;12.20;99.90
18611;DHT22;9435;52.122;5.502;2022-09-28T15:49:36;12.20;99.90
18611;DHT22;9435;52.122;5.502;2022-09-28T15:52:16;12.20;99.90
18611;DHT22;9435;52.122;5.502;2022-09-28T15:54:48;12.20;99.90
18611;DHT22;9435;52.122;5.502;2022-09-28T15:57:35;12.20;99.90
18611;DHT22;9435;52.122;5.502;2022-09-28T16:00:23;12.20;99.90
18611;DHT22;9435;52.122;5.502;2022-09-28T16:02:58;12.20;99.90
18611;DHT22;9435;52.122;5.502;2022-09-28T16:05:31;12.20;99.90
18611;DHT22;9435;52.122;5.502;2022-09-28T16:08:01;12.30;99.90
18611;DHT22;9435;52.122;5.502;2022-09-28T16:10:31;12.30;99.90
18611;DHT22;9435;52.122;5.502;2022-09-28T16:13:11;12.30;99.90
18611;DHT22;9435;52.122;5.502;2022-09-28T16:15:41;12.30;99.90
18611;DHT22;9435;52.122;5.502;2022-09-28T16:18:19;12.40;99.90
18611;DHT22;9435;52.122;5.502;2022-09-28T16:20:50;12.40;99.90
18611;DHT22;9435;52.122;5.502;2022-09-28T16:23:21;12.30;99.90
18611;DHT22;9435;52.122;5.502;2022-09-28T16:25:51;12.40;99.90
18611;DHT22;9435;52.122;5.502;2022-09-28T16:28:47;12.40;99.90
18611;DHT22;9435;52.122;5.502;2022-09-28T16:31:31;12.40;99.90
18611;DHT22;9435;52.122;5.502;2022-09-28T16:34:07;12.40;99.90
18611;DHT22;9435;52.122;5.502;2022-09-28T16:36:41;12.40;99.90
18611;DHT22;9435;52.122;5.502;2022-09-28T16:39:11;12.50;99.90
18611;DHT22;9435;52.122;5.502;2022-09-28T16:41:39;12.50;99.90
18611;DHT22;9435;52.122;5.502;2022-09-28T16:44:15;12.60;99.90
18611;DHT22;9435;52.122;5.502;2022-09-28T16:46:45;12.70;99.90
18611;DHT22;9435;52.122;5.502;2022-09-28T16:49:14;12.50;99.90
18611;DHT22;9435;52.122;5.502;2022-09-28T16:51:45;12.40;99.90
18611;DHT22;9435;52.122;5.502;2022-09-28T16:54:15;12.50;99.90
18611;DHT22;9435;52.122;5.502;2022-09-28T16:57:00;12.50;99.90